createdAt,value
2023-04-06T00:00:19.608Z,99688.66
2023-04-06T00:01:21.806Z,99692.94
2023-04-06T00:02:24.032Z,99683.44
2023-04-06T00:03:26.479Z,99686.00
2023-04-06T00:04:28.775Z,99678.34
2023-04-06T00:05:31.698Z,99683.50
2023-04-06T00:06:34.216Z,99688.66
2023-04-06T00:07:36.530Z,99680.13
2023-04-06T00:08:38.894Z,99685.22
2023-04-06T00:09:41.281Z,99689.50
2023-04-06T00:10:43.570Z,99681.75
2023-04-06T00:11:45.903Z,99665.34
2023-04-06T00:12:48.163Z,99674.88
2023-04-06T00:13:50.377Z,99672.28
2023-04-06T00:14:52.638Z,99675.81
2023-04-06T00:15:54.901Z,99668.91
2023-04-06T00:16:57.198Z,99676.63
2023-04-06T00:17:59.546Z,99674.03
2023-04-06T00:19:01.819Z,99661.19
2023-04-06T00:20:04.411Z,99666.34
2023-04-06T00:21:06.670Z,99669.75
2023-04-06T00:22:08.897Z,99665.47
2023-04-06T00:23:11.230Z,99670.59
2023-04-06T00:24:13.412Z,99663.69
2023-04-06T00:25:16.364Z,99674.88
2023-04-06T00:26:19.870Z,99666.28
2023-04-06T00:27:23.086Z,99671.44
2023-04-06T00:28:27.181Z,99665.44
2023-04-06T00:29:29.363Z,99660.25
2023-04-06T00:30:31.696Z,99665.41
2023-04-06T00:31:34.261Z,99662.84
2023-04-06T00:32:37.049Z,99659.38
2023-04-06T00:33:39.359Z,99661.09
2023-04-06T00:34:41.595Z,99660.31
2023-04-06T00:35:43.954Z,99654.31
2023-04-06T00:36:46.333Z,99659.53
2023-04-06T00:37:51.113Z,99650.91
2023-04-06T00:38:53.408Z,99653.50
2023-04-06T00:39:56.013Z,99652.69
2023-04-06T00:40:58.685Z,99654.41
2023-04-06T00:42:01.953Z,99657.88
2023-04-06T00:43:04.163Z,99644.97
2023-04-06T00:44:06.438Z,99654.44
2023-04-06T00:45:09.388Z,99646.69
2023-04-06T00:46:11.744Z,99647.56
2023-04-06T00:47:14.881Z,99638.94
2023-04-06T00:48:17.694Z,99650.94
2023-04-06T00:49:19.959Z,99644.03
2023-04-06T00:50:22.288Z,99646.63
2023-04-06T00:51:24.597Z,99644.03
2023-04-06T00:52:26.819Z,99643.19
2023-04-06T00:53:30.274Z,99638.88
2023-04-06T00:54:34.309Z,99634.59
2023-04-06T00:55:37.019Z,99637.16
2023-04-06T00:56:39.894Z,99641.47
2023-04-06T00:57:42.184Z,99643.97
2023-04-06T00:58:45.409Z,99636.25
2023-04-06T00:59:47.885Z,99640.56
2023-04-06T01:00:50.318Z,99639.59
2023-04-06T01:01:55.649Z,99634.53
2023-04-06T01:03:09.296Z,99631.09
2023-04-06T01:04:18.137Z,99632.84
2023-04-06T01:05:21.084Z,99629.41
2023-04-06T01:06:27.684Z,99638.03
2023-04-06T01:07:36.918Z,99631.97
2023-04-06T01:08:44.553Z,99638.00
2023-04-06T01:09:55.164Z,99620.75
2023-04-06T01:11:04.496Z,99631.09
2023-04-06T01:12:06.989Z,99633.66
2023-04-06T01:13:10.835Z,99630.16
2023-04-06T01:14:27.735Z,99634.44
2023-04-06T01:15:36.235Z,99630.13
2023-04-06T01:16:39.079Z,99630.06
2023-04-06T01:17:46.033Z,99642.97
2023-04-06T01:18:51.935Z,99633.41
2023-04-06T01:19:58.691Z,99631.63
2023-04-06T01:21:05.567Z,99632.50
2023-04-06T01:22:08.218Z,99629.94
2023-04-06T01:23:33.429Z,99629.06
2023-04-06T01:24:35.916Z,99636.06
2023-04-06T01:25:59.133Z,99636.09
2023-04-06T01:27:05.705Z,99626.56
2023-04-06T01:28:21.960Z,99629.94
2023-04-06T01:29:47.271Z,99632.47
2023-04-06T01:30:55.771Z,99627.34
2023-04-06T01:32:21.829Z,99629.06
2023-04-06T01:33:26.553Z,99624.69
2023-04-06T01:34:36.884Z,99634.91
2023-04-06T01:35:41.555Z,99630.63
2023-04-06T01:36:51.223Z,99625.50
2023-04-06T01:38:01.382Z,99623.81
2023-04-06T01:39:08.055Z,99621.31
2023-04-06T01:40:14.742Z,99616.09
2023-04-06T01:41:22.062Z,99621.31
2023-04-06T01:42:28.901Z,99616.16
2023-04-06T01:43:31.529Z,99615.31
2023-04-06T01:44:38.311Z,99612.78
2023-04-06T01:45:46.009Z,99611.94
2023-04-06T01:46:53.595Z,99621.41
2023-04-06T01:47:56.324Z,99615.34
2023-04-06T01:49:01.474Z,99609.28
2023-04-06T01:50:15.531Z,99614.47
2023-04-06T01:51:21.662Z,99611.97
2023-04-06T01:52:31.035Z,99623.22
2023-04-06T01:53:33.440Z,99609.44
2023-04-06T01:54:40.869Z,99619.75
2023-04-06T01:55:47.529Z,99612.03
2023-04-06T01:57:02.289Z,99623.22
2023-04-06T01:58:08.600Z,99611.13
2023-04-06T01:59:14.125Z,99613.69
2023-04-06T02:02:08.606Z,99607.63
2023-04-06T02:03:14.656Z,99617.09
2023-04-06T02:04:17.280Z,99608.41
2023-04-06T02:05:22.040Z,99620.50
2023-04-06T02:06:26.287Z,99617.00
2023-04-06T02:07:28.551Z,99610.97
2023-04-06T02:08:31.496Z,99619.56
2023-04-06T02:09:33.885Z,99628.22
2023-04-06T02:10:36.406Z,99623.03
2023-04-06T02:11:47.047Z,99619.59
2023-04-06T02:12:49.753Z,99623.06
2023-04-06T02:13:58.362Z,99623.06
2023-04-06T02:15:05.279Z,99617.94
2023-04-06T02:16:07.750Z,99623.91
2023-04-06T02:17:09.952Z,99621.38
2023-04-06T02:18:13.270Z,99618.03
2023-04-06T02:19:16.942Z,99621.47
2023-04-06T02:20:19.508Z,99616.31
2023-04-06T02:21:21.777Z,99618.03
2023-04-06T02:22:23.968Z,99613.72
2023-04-06T02:23:27.570Z,99618.84
2023-04-06T02:24:29.840Z,99618.03
2023-04-06T02:25:32.106Z,99611.97
2023-04-06T02:26:34.357Z,99613.69
2023-04-06T02:27:37.138Z,99618.84
2023-04-06T02:28:39.388Z,99617.16
2023-04-06T02:29:42.155Z,99614.56
2023-04-06T02:30:44.568Z,99610.31
2023-04-06T02:31:47.634Z,99619.78
2023-04-06T02:32:49.944Z,99618.03
2023-04-06T02:33:52.776Z,99612.91
2023-04-06T02:34:55.326Z,99614.63
2023-04-06T02:35:58.081Z,99622.38
2023-04-06T02:37:00.390Z,99617.22
2023-04-06T02:38:02.714Z,99610.34
2023-04-06T02:39:05.294Z,99613.81
2023-04-06T02:40:08.424Z,99612.06
2023-04-06T02:41:10.651Z,99612.00
2023-04-06T02:42:16.086Z,99613.69
2023-04-06T02:43:20.219Z,99615.34
2023-04-06T02:44:23.405Z,99615.41
2023-04-06T02:45:25.829Z,99605.91
2023-04-06T02:46:28.145Z,99605.03
2023-04-06T02:47:30.642Z,99609.41
2023-04-06T02:48:32.999Z,99612.00
2023-04-06T02:49:35.509Z,99604.25
2023-04-06T02:50:37.805Z,99610.31
2023-04-06T02:51:42.649Z,99606.88
2023-04-06T02:53:01.812Z,99600.03
2023-04-06T02:54:04.156Z,99601.78
2023-04-06T02:55:08.535Z,99602.69
2023-04-06T02:56:10.852Z,99599.28
2023-04-06T02:57:23.677Z,99604.47
2023-04-06T02:58:25.962Z,99599.31
2023-04-06T02:59:31.102Z,99591.56
2023-04-06T03:00:56.209Z,99599.31
2023-04-06T03:01:58.519Z,99595.03
2023-04-06T03:03:01.225Z,99596.75
2023-04-06T03:04:03.848Z,99605.34
2023-04-06T03:05:06.658Z,99605.34
2023-04-06T03:06:13.311Z,99597.56
2023-04-06T03:07:16.071Z,99594.09
2023-04-06T03:08:18.841Z,99600.97
2023-04-06T03:09:22.690Z,99597.50
2023-04-06T03:10:25.008Z,99595.81
2023-04-06T03:11:27.736Z,99599.22
2023-04-06T03:12:30.089Z,99597.47
2023-04-06T03:13:51.339Z,99600.03
2023-04-06T03:14:53.597Z,99600.88
2023-04-06T03:15:56.348Z,99595.72
2023-04-06T03:16:58.723Z,99591.38
2023-04-06T03:18:02.285Z,99594.00
2023-04-06T03:19:12.891Z,99595.72
2023-04-06T03:20:15.413Z,99596.63
2023-04-06T03:21:17.640Z,99595.81
2023-04-06T03:22:23.855Z,99594.94
2023-04-06T03:23:26.195Z,99594.09
2023-04-06T03:24:33.441Z,99592.38
2023-04-06T03:25:36.012Z,99584.63
2023-04-06T03:26:42.036Z,99591.53
2023-04-06T03:27:44.787Z,99588.09
2023-04-06T03:28:50.659Z,99592.44
2023-04-06T03:29:55.631Z,99595.84
2023-04-06T03:31:05.546Z,99588.97
2023-04-06T03:32:31.577Z,99592.38
2023-04-06T03:33:33.931Z,99594.97
2023-04-06T03:34:36.413Z,99594.97
2023-04-06T03:35:38.896Z,99591.53
2023-04-06T03:36:41.369Z,99585.50
2023-04-06T03:37:43.583Z,99593.22
2023-04-06T03:38:46.096Z,99595.81
2023-04-06T03:39:50.070Z,99600.06
2023-04-06T03:40:57.160Z,99595.78
2023-04-06T03:42:02.585Z,99594.94
2023-04-06T03:43:13.033Z,99603.47
2023-04-06T03:44:16.397Z,99596.56
2023-04-06T03:45:20.420Z,99606.91
2023-04-06T03:46:26.028Z,99603.44
2023-04-06T03:47:30.890Z,99606.00
2023-04-06T03:48:37.656Z,99603.38
2023-04-06T03:49:42.165Z,99611.09
2023-04-06T03:50:46.985Z,99617.13
2023-04-06T03:51:49.292Z,99609.34
2023-04-06T03:52:51.710Z,99611.88
2023-04-06T03:53:54.001Z,99609.28
2023-04-06T03:54:56.244Z,99611.91
2023-04-06T03:55:58.597Z,99613.72
2023-04-06T03:57:01.305Z,99616.34
2023-04-06T03:58:03.578Z,99618.88
2023-04-06T03:59:06.443Z,99616.25
2023-04-06T04:00:09.952Z,99617.00
2023-04-06T04:01:15.210Z,99604.94
2023-04-06T04:02:17.695Z,99616.91
2023-04-06T04:03:20.391Z,99623.78
2023-04-06T04:04:22.978Z,99612.59
2023-04-06T04:05:26.355Z,99611.84
2023-04-06T04:06:29.048Z,99607.59
2023-04-06T04:07:31.541Z,99617.16
2023-04-06T04:08:33.851Z,99618.00
2023-04-06T04:09:38.079Z,99618.91
2023-04-06T04:10:40.417Z,99613.72
2023-04-06T04:11:42.719Z,99620.63
2023-04-06T04:12:45.367Z,99613.78
2023-04-06T04:13:47.617Z,99605.19
2023-04-06T04:14:49.885Z,99612.94
2023-04-06T04:15:52.246Z,99615.50
2023-04-06T04:16:54.541Z,99610.38
2023-04-06T04:17:56.919Z,99614.63
2023-04-06T04:18:59.781Z,99618.09
2023-04-06T04:20:02.182Z,99612.09
2023-04-06T04:21:04.730Z,99610.38
2023-04-06T04:22:07.546Z,99614.66
2023-04-06T04:23:13.801Z,99618.09
2023-04-06T04:24:16.233Z,99611.22
2023-04-06T04:25:18.476Z,99612.09
2023-04-06T04:26:24.359Z,99615.56
2023-04-06T04:27:26.676Z,99618.13
2023-04-06T04:28:28.957Z,99623.28
2023-04-06T04:29:31.991Z,99623.31
2023-04-06T04:30:38.784Z,99630.19
2023-04-06T04:31:45.220Z,99621.56
2023-04-06T04:32:52.560Z,99622.34
2023-04-06T04:33:58.795Z,99627.47
2023-04-06T04:35:05.883Z,99631.72
2023-04-06T04:36:12.610Z,99626.50
2023-04-06T04:37:18.247Z,99632.44
2023-04-06T04:38:26.219Z,99621.19
2023-04-06T04:39:31.997Z,99622.06
2023-04-06T04:40:39.136Z,99627.25
2023-04-06T04:41:47.618Z,99622.16
2023-04-06T04:42:51.887Z,99623.91
2023-04-06T04:44:01.171Z,99635.09
2023-04-06T04:45:03.658Z,99624.75
2023-04-06T04:46:13.270Z,99628.16
2023-04-06T04:47:18.431Z,99630.69
2023-04-06T04:48:22.434Z,99626.34
2023-04-06T04:49:32.319Z,99617.69
2023-04-06T04:50:34.903Z,99635.72
2023-04-06T04:51:37.482Z,99635.72
2023-04-06T04:52:44.603Z,99639.94
2023-04-06T04:53:51.442Z,99635.66
2023-04-06T04:54:58.662Z,99646.97
2023-04-06T04:56:04.164Z,99635.72
2023-04-06T04:57:06.456Z,99640.88
2023-04-06T04:58:17.647Z,99634.84
2023-04-06T04:59:32.586Z,99635.66
2023-04-06T05:00:41.842Z,99634.81
2023-04-06T05:01:54.112Z,99640.84
2023-04-06T05:02:58.077Z,99644.28
2023-04-06T05:04:06.401Z,99633.16
2023-04-06T05:05:09.412Z,99638.38
2023-04-06T05:06:13.501Z,99647.06
2023-04-06T05:07:19.422Z,99637.59
2023-04-06T05:08:21.802Z,99641.06
2023-04-06T05:09:24.337Z,99647.09
2023-04-06T05:10:26.670Z,99646.25
2023-04-06T05:11:33.940Z,99646.31
2023-04-06T05:12:38.300Z,99649.69
2023-04-06T05:13:43.254Z,99642.03
2023-04-06T05:14:51.017Z,99649.00
2023-04-06T05:15:55.500Z,99648.19
2023-04-06T05:17:01.958Z,99646.53
2023-04-06T05:18:05.740Z,99645.78
2023-04-06T05:19:10.480Z,99638.13
2023-04-06T05:20:17.981Z,99642.47
2023-04-06T05:21:26.681Z,99639.88
2023-04-06T05:22:40.245Z,99645.09
2023-04-06T05:23:45.797Z,99644.22
2023-04-06T05:24:48.098Z,99645.03
2023-04-06T05:25:51.151Z,99639.81
2023-04-06T05:26:57.311Z,99643.91
2023-04-06T05:28:00.808Z,99642.53
2023-04-06T05:29:07.209Z,99633.28
2023-04-06T05:30:12.654Z,99622.69
2023-04-06T05:31:19.899Z,99627.50
2023-04-06T05:32:25.663Z,99631.06
2023-04-06T05:33:28.412Z,99622.38
2023-04-06T05:34:41.234Z,99630.22
2023-04-06T05:35:43.732Z,99624.19
2023-04-06T05:36:49.044Z,99630.66
2023-04-06T05:37:54.797Z,99630.16
2023-04-06T05:39:00.357Z,99631.44
2023-04-06T05:40:24.280Z,99636.88
2023-04-06T05:41:27.174Z,99635.47
2023-04-06T05:42:37.609Z,99640.66
2023-04-06T05:43:39.845Z,99630.75
2023-04-06T05:44:42.189Z,99640.03
2023-04-06T05:45:48.563Z,99637.75
2023-04-06T05:46:50.846Z,99640.53
2023-04-06T05:47:53.493Z,99640.66
2023-04-06T05:49:01.810Z,99650.69
2023-04-06T05:50:07.827Z,99637.00
2023-04-06T05:51:13.884Z,99637.78
2023-04-06T05:52:23.151Z,99641.56
2023-04-06T05:53:27.193Z,99643.09
2023-04-06T05:54:33.188Z,99647.88
2023-04-06T05:55:37.916Z,99636.22
2023-04-06T05:56:47.739Z,99642.66
2023-04-06T05:57:50.658Z,99642.56
2023-04-06T05:58:54.766Z,99645.19
2023-04-06T06:00:04.560Z,99642.75
2023-04-06T06:01:21.541Z,99645.47
2023-04-06T06:02:24.747Z,99635.25
2023-04-06T06:03:29.639Z,99642.50
2023-04-06T06:04:33.482Z,99639.56
2023-04-06T06:05:36.019Z,99645.63
2023-04-06T06:06:46.617Z,99648.06
2023-04-06T06:07:54.748Z,99637.59
2023-04-06T06:09:01.600Z,99648.03
2023-04-06T06:10:05.387Z,99646.59
2023-04-06T06:11:12.152Z,99645.91
2023-04-06T06:12:14.844Z,99640.97
2023-04-06T06:13:17.439Z,99641.06
2023-04-06T06:14:19.980Z,99652.28
2023-04-06T06:15:22.525Z,99647.91
2023-04-06T06:16:24.855Z,99639.84
2023-04-06T06:17:27.868Z,99648.28
2023-04-06T06:18:30.532Z,99648.91
2023-04-06T06:19:32.873Z,99654.03
2023-04-06T06:20:38.244Z,99653.81
2023-04-06T06:21:41.408Z,99648.53
2023-04-06T06:22:43.610Z,99639.56
2023-04-06T06:23:51.236Z,99653.72
2023-04-06T06:24:55.880Z,99653.94
2023-04-06T06:25:59.346Z,99653.16
2023-04-06T06:27:02.630Z,99649.53
2023-04-06T06:28:07.682Z,99653.41
2023-04-06T06:29:10.281Z,99653.38
2023-04-06T06:30:14.933Z,99667.91
2023-04-06T06:31:19.406Z,99663.63
2023-04-06T06:32:21.682Z,99665.91
2023-04-06T06:33:27.174Z,99676.50
2023-04-06T06:34:30.840Z,99675.25
2023-04-06T06:35:35.705Z,99686.16
2023-04-06T06:36:40.354Z,99675.03
2023-04-06T06:37:45.336Z,99677.66
2023-04-06T06:38:50.321Z,99669.63
2023-04-06T06:39:55.452Z,99679.47
2023-04-06T06:40:58.828Z,99677.66
2023-04-06T06:42:03.957Z,99670.81
2023-04-06T06:43:23.279Z,99673.34
2023-04-06T06:44:34.164Z,99671.53
2023-04-06T06:45:36.431Z,99674.94
2023-04-06T06:46:38.714Z,99680.00
2023-04-06T06:47:42.369Z,99676.59
2023-04-06T06:48:47.542Z,99671.47
2023-04-06T06:49:49.858Z,99676.72
2023-04-06T06:50:52.132Z,99678.34
2023-04-06T06:51:54.347Z,99678.56
2023-04-06T06:52:56.576Z,99668.16
2023-04-06T06:53:58.770Z,99674.16
2023-04-06T06:55:01.325Z,99676.66
2023-04-06T06:56:03.857Z,99665.53
2023-04-06T06:57:06.723Z,99681.19
2023-04-06T06:58:09.133Z,99674.94
2023-04-06T06:59:13.458Z,99674.91
2023-04-06T07:00:16.024Z,99672.28
2023-04-06T07:01:20.450Z,99665.22
2023-04-06T07:02:23.085Z,99672.19
2023-04-06T07:03:25.470Z,99673.94
2023-04-06T07:04:27.812Z,99662.44
2023-04-06T07:05:30.441Z,99665.84
2023-04-06T07:06:36.838Z,99665.56
2023-04-06T07:07:39.171Z,99665.34
2023-04-06T07:08:41.393Z,99659.72
2023-04-06T07:09:44.173Z,99661.22
2023-04-06T07:10:46.648Z,99668.97
2023-04-06T07:11:50.071Z,99655.56
2023-04-06T07:12:52.287Z,99658.13
2023-04-06T07:13:54.553Z,99657.16
2023-04-06T07:14:56.964Z,99655.44
2023-04-06T07:15:59.299Z,99659.75
2023-04-06T07:17:01.812Z,99661.25
2023-04-06T07:18:04.466Z,99652.31
2023-04-06T07:19:06.891Z,99650.34
2023-04-06T07:20:13.130Z,99660.50
2023-04-06T07:21:17.950Z,99661.28
2023-04-06T07:22:20.343Z,99656.16
2023-04-06T07:23:22.531Z,99661.16
2023-04-06T07:24:24.778Z,99661.00
2023-04-06T07:25:27.038Z,99654.75
2023-04-06T07:26:29.213Z,99643.19
2023-04-06T07:27:31.441Z,99656.09
2023-04-06T07:28:33.697Z,99654.69
2023-04-06T07:29:37.685Z,99655.59
2023-04-06T07:30:39.982Z,99650.16
2023-04-06T07:31:42.566Z,99651.03
2023-04-06T07:32:44.937Z,99656.00
2023-04-06T07:33:47.974Z,99652.16
2023-04-06T07:34:50.878Z,99647.38
2023-04-06T07:35:54.022Z,99653.91
2023-04-06T07:36:57.566Z,99653.63
2023-04-06T07:38:00.213Z,99652.59
2023-04-06T07:39:02.893Z,99648.25
2023-04-06T07:40:05.689Z,99657.31
2023-04-06T07:41:08.023Z,99649.44
2023-04-06T07:42:11.068Z,99645.53
2023-04-06T07:43:13.553Z,99646.22
2023-04-06T07:44:16.006Z,99647.72
2023-04-06T07:45:19.282Z,99651.53
2023-04-06T07:46:22.529Z,99646.63
2023-04-06T07:47:25.101Z,99650.09
2023-04-06T07:48:27.295Z,99649.56
2023-04-06T07:49:29.639Z,99644.50
2023-04-06T07:50:32.323Z,99646.97
2023-04-06T07:51:39.256Z,99648.63
2023-04-06T07:52:41.718Z,99648.63
2023-04-06T07:53:47.831Z,99649.34
2023-04-06T07:54:50.471Z,99648.44
2023-04-06T07:55:52.737Z,99641.03
2023-04-06T07:56:54.990Z,99647.28
2023-04-06T07:57:57.251Z,99648.63
2023-04-06T07:58:59.740Z,99654.38
2023-04-06T08:00:02.131Z,99652.84
2023-04-06T08:01:14.481Z,99650.09
2023-04-06T08:02:16.741Z,99649.88
2023-04-06T08:03:21.716Z,99645.69
2023-04-06T08:04:24.312Z,99642.44
2023-04-06T08:05:26.904Z,99640.19
2023-04-06T08:06:29.638Z,99638.22
2023-04-06T08:07:31.969Z,99643.69
2023-04-06T08:08:34.287Z,99650.47
2023-04-06T08:09:36.542Z,99638.69
2023-04-06T08:10:38.922Z,99642.69
2023-04-06T08:11:41.356Z,99644.41
2023-04-06T08:12:43.536Z,99647.00
2023-04-06T08:13:45.751Z,99643.34
2023-04-06T08:14:48.776Z,99640.34
2023-04-06T08:15:51.061Z,99632.91
2023-04-06T08:16:53.377Z,99635.72
2023-04-06T08:17:58.152Z,99638.38
2023-04-06T08:19:00.497Z,99634.78
2023-04-06T08:20:04.400Z,99631.50
2023-04-06T08:21:06.856Z,99631.59
2023-04-06T08:22:09.122Z,99633.44
2023-04-06T08:23:12.000Z,99637.75
2023-04-06T08:24:15.470Z,99637.59
2023-04-06T08:25:17.878Z,99630.19
2023-04-06T08:26:20.830Z,99636.63
2023-04-06T08:27:23.077Z,99628.50
2023-04-06T08:28:25.603Z,99634.25
2023-04-06T08:29:27.804Z,99623.38
2023-04-06T08:30:30.626Z,99627.75
2023-04-06T08:31:32.988Z,99630.72
2023-04-06T08:32:35.283Z,99625.81
2023-04-06T08:33:39.905Z,99624.69
2023-04-06T08:34:42.097Z,99622.16
2023-04-06T08:35:44.404Z,99620.94
2023-04-06T08:36:47.680Z,99621.31
2023-04-06T08:37:49.944Z,99617.75
2023-04-06T08:38:52.169Z,99622.56
2023-04-06T08:39:54.386Z,99622.41
2023-04-06T08:40:56.915Z,99615.56
2023-04-06T08:42:00.913Z,99615.31
2023-04-06T08:43:09.349Z,99615.66
2023-04-06T08:44:12.534Z,99622.09
2023-04-06T08:45:16.683Z,99617.69
2023-04-06T08:46:19.494Z,99612.75
2023-04-06T08:47:24.625Z,99617.91
2023-04-06T08:48:28.022Z,99617.25
2023-04-06T08:49:30.398Z,99620.69
2023-04-06T08:50:33.846Z,99613.88
2023-04-06T08:51:38.262Z,99614.88
2023-04-06T08:52:41.513Z,99612.91
2023-04-06T08:53:43.989Z,99613.66
2023-04-06T08:54:46.424Z,99612.91
2023-04-06T08:55:49.093Z,99617.91
2023-04-06T08:56:53.196Z,99616.06
2023-04-06T08:57:56.658Z,99610.31
2023-04-06T08:58:59.699Z,99615.84
2023-04-06T09:00:02.295Z,99623.16
2023-04-06T09:01:11.674Z,99619.97
2023-04-06T09:02:18.462Z,99611.25
2023-04-06T09:03:22.258Z,99615.44
2023-04-06T09:04:24.938Z,99617.47
2023-04-06T09:05:27.376Z,99610.59
2023-04-06T09:06:29.561Z,99604.88
2023-04-06T09:07:31.946Z,99600.59
2023-04-06T09:08:35.646Z,99607.72
2023-04-06T09:09:38.149Z,99597.63
2023-04-06T09:10:43.753Z,99607.97
2023-04-06T09:11:51.112Z,99607.50
2023-04-06T09:13:05.216Z,99612.19
2023-04-06T09:14:07.673Z,99604.88
2023-04-06T09:15:22.144Z,99607.00
2023-04-06T09:16:26.601Z,99604.06
2023-04-06T09:17:31.330Z,99596.81
2023-04-06T09:18:34.677Z,99597.41
2023-04-06T09:19:49.543Z,99600.03
2023-04-06T09:21:06.263Z,99594.91
2023-04-06T09:22:08.620Z,99588.44
2023-04-06T09:23:20.292Z,99598.97
2023-04-06T09:24:26.979Z,99603.44
2023-04-06T09:25:29.406Z,99596.69
2023-04-06T09:26:34.475Z,99604.66
2023-04-06T09:27:38.826Z,99596.91
2023-04-06T09:28:52.101Z,99593.06
2023-04-06T09:30:10.910Z,99593.56
2023-04-06T09:31:18.057Z,99591.31
2023-04-06T09:32:20.339Z,99589.69
2023-04-06T09:33:24.399Z,99589.47
2023-04-06T09:34:26.697Z,99592.38
2023-04-06T09:35:31.279Z,99589.75
2023-04-06T09:36:35.876Z,99587.41
2023-04-06T09:37:38.135Z,99575.06
2023-04-06T09:38:58.881Z,99586.50
2023-04-06T09:40:06.247Z,99592.38
2023-04-06T09:41:08.501Z,99581.66
2023-04-06T09:42:10.935Z,99591.22
2023-04-06T09:43:13.175Z,99588.41
2023-04-06T09:44:15.515Z,99583.84
2023-04-06T09:45:17.875Z,99585.22
2023-04-06T09:46:23.436Z,99574.84
2023-04-06T09:47:29.279Z,99581.13
2023-04-06T09:48:35.349Z,99574.91
2023-04-06T09:49:38.597Z,99579.78
2023-04-06T09:50:41.308Z,99569.84
2023-04-06T09:51:50.208Z,99573.78
2023-04-06T09:52:56.075Z,99575.47
2023-04-06T09:54:04.035Z,99575.41
2023-04-06T09:55:08.958Z,99561.47
2023-04-06T09:56:17.205Z,99577.09
2023-04-06T09:57:37.918Z,99576.88
2023-04-06T09:58:42.353Z,99576.69
2023-04-06T09:59:53.517Z,99580.09
2023-04-06T10:01:10.765Z,99583.50
2023-04-06T10:02:29.960Z,99574.06
2023-04-06T10:03:50.877Z,99574.75
2023-04-06T10:04:59.343Z,99573.16
2023-04-06T10:06:06.972Z,99568.34
2023-04-06T10:07:13.132Z,99574.97
2023-04-06T10:08:17.365Z,99577.88
2023-04-06T10:09:25.993Z,99573.75
2023-04-06T10:10:29.744Z,99575.88
2023-04-06T10:11:32.216Z,99565.97
2023-04-06T10:12:34.707Z,99576.88
2023-04-06T10:13:37.076Z,99576.78
2023-04-06T10:14:42.002Z,99571.84
2023-04-06T10:15:45.062Z,99577.50
2023-04-06T10:16:49.618Z,99571.28
2023-04-06T10:17:52.855Z,99583.22
2023-04-06T10:19:10.837Z,99569.72
2023-04-06T10:20:19.011Z,99571.81
2023-04-06T10:21:26.469Z,99569.78
2023-04-06T10:22:45.333Z,99566.09
2023-04-06T10:23:53.525Z,99566.00
2023-04-06T10:24:55.736Z,99566.91
2023-04-06T10:25:59.747Z,99563.59
2023-04-06T10:27:03.969Z,99561.69
2023-04-06T10:28:10.477Z,99564.81
2023-04-06T10:29:12.823Z,99562.88
2023-04-06T10:30:17.918Z,99566.28
2023-04-06T10:31:28.095Z,99556.38
2023-04-06T10:32:37.561Z,99553.69
2023-04-06T10:33:41.446Z,99561.09
2023-04-06T10:34:43.671Z,99562.56
2023-04-06T10:35:46.492Z,99556.28
2023-04-06T10:36:49.195Z,99556.56
2023-04-06T10:38:03.229Z,99550.50
2023-04-06T10:39:07.251Z,99548.50
2023-04-06T10:40:30.234Z,99551.38
2023-04-06T10:41:45.924Z,99554.47
2023-04-06T10:42:47.936Z,99551.09
2023-04-06T10:43:58.862Z,99548.28
2023-04-06T10:45:00.869Z,99547.94
2023-04-06T10:46:03.491Z,99550.66
2023-04-06T10:47:05.676Z,99559.47
2023-04-06T10:48:14.084Z,99546.25
2023-04-06T10:49:16.156Z,99555.81
2023-04-06T10:50:18.285Z,99543.31
2023-04-06T10:51:24.879Z,99540.00
2023-04-06T10:52:26.859Z,99542.78
2023-04-06T10:53:29.032Z,99544.38
2023-04-06T10:54:32.951Z,99530.63
2023-04-06T10:55:35.462Z,99541.22
2023-04-06T10:56:38.216Z,99542.44
2023-04-06T10:57:40.316Z,99547.13
2023-04-06T10:58:49.462Z,99542.78
2023-04-06T10:59:54.268Z,99539.75
2023-04-06T11:01:00.959Z,99550.16
2023-04-06T11:02:02.902Z,99541.78
2023-04-06T11:03:05.374Z,99543.34
2023-04-06T11:04:09.412Z,99532.31
2023-04-06T11:05:12.510Z,99535.84
2023-04-06T11:06:20.835Z,99534.63
2023-04-06T11:07:27.673Z,99527.19
2023-04-06T11:08:31.739Z,99530.22
2023-04-06T11:09:34.075Z,99532.75
2023-04-06T11:10:36.153Z,99529.28
2023-04-06T11:11:39.643Z,99526.72
2023-04-06T11:12:42.281Z,99531.91
2023-04-06T11:13:48.029Z,99535.84
2023-04-06T11:14:57.171Z,99522.59
2023-04-06T11:15:59.179Z,99523.50
2023-04-06T11:17:01.289Z,99511.56
2023-04-06T11:18:06.289Z,99517.25
2023-04-06T11:19:08.766Z,99521.22
2023-04-06T11:20:12.133Z,99526.38
2023-04-06T11:21:14.131Z,99510.72
2023-04-06T11:22:16.340Z,99519.72
2023-04-06T11:23:27.304Z,99510.31
2023-04-06T11:24:29.317Z,99514.78
2023-04-06T11:25:33.305Z,99511.81
2023-04-06T11:26:38.820Z,99514.41
2023-04-06T11:27:40.879Z,99508.00
2023-04-06T11:28:44.015Z,99508.47
2023-04-06T11:29:48.609Z,99506.22
2023-04-06T11:30:50.812Z,99503.44
2023-04-06T11:31:54.424Z,99509.00
2023-04-06T11:33:01.664Z,99507.09
2023-04-06T11:34:09.491Z,99498.94
2023-04-06T11:35:12.656Z,99496.22
2023-04-06T11:36:16.465Z,99502.47
2023-04-06T11:37:19.132Z,99501.22
2023-04-06T11:38:21.936Z,99507.28
2023-04-06T11:39:24.926Z,99505.28
2023-04-06T11:40:26.981Z,99499.78
2023-04-06T11:41:30.914Z,99499.19
2023-04-06T11:42:35.693Z,99491.56
2023-04-06T11:43:37.732Z,99494.44
2023-04-06T11:44:41.398Z,99509.59
2023-04-06T11:45:44.206Z,99499.34
2023-04-06T11:46:52.614Z,99506.22
2023-04-06T11:47:59.324Z,99497.88
2023-04-06T11:49:02.154Z,99502.06
2023-04-06T11:50:11.254Z,99502.97
2023-04-06T11:51:13.226Z,99499.91
2023-04-06T11:52:21.686Z,99497.56
2023-04-06T11:53:23.701Z,99496.09
2023-04-06T11:54:32.476Z,99492.13
2023-04-06T11:55:41.031Z,99491.78
2023-04-06T11:56:43.169Z,99488.53
2023-04-06T11:57:45.981Z,99483.06
2023-04-06T11:58:48.011Z,99491.88
2023-04-06T11:59:50.166Z,99486.25
2023-04-06T12:00:52.581Z,99489.50
2023-04-06T12:01:55.150Z,99490.91
2023-04-06T12:02:57.189Z,99481.16
2023-04-06T12:03:59.730Z,99483.91
2023-04-06T12:05:02.303Z,99483.16
2023-04-06T12:06:04.355Z,99478.69
2023-04-06T12:07:06.407Z,99475.47
2023-04-06T12:08:08.376Z,99481.91
2023-04-06T12:09:10.351Z,99479.81
2023-04-06T12:10:12.422Z,99487.09
2023-04-06T12:11:14.501Z,99481.06
2023-04-06T12:12:16.853Z,99487.91
2023-04-06T12:13:18.830Z,99479.13
2023-04-06T12:14:21.585Z,99480.59
2023-04-06T12:15:23.629Z,99476.69
2023-04-06T12:16:25.601Z,99473.69
2023-04-06T12:17:27.667Z,99475.59
2023-04-06T12:18:30.968Z,99474.16
2023-04-06T12:19:32.962Z,99469.09
2023-04-06T12:20:35.109Z,99461.56
2023-04-06T12:21:38.283Z,99474.84
2023-04-06T12:22:40.600Z,99485.19
2023-04-06T12:23:42.591Z,99478.69
2023-04-06T12:24:44.578Z,99477.31
2023-04-06T12:25:46.870Z,99476.34
2023-04-06T12:26:51.616Z,99472.53
2023-04-06T12:27:56.172Z,99479.53
2023-04-06T12:29:03.952Z,99466.97
2023-04-06T12:30:06.296Z,99468.59
2023-04-06T12:31:15.040Z,99476.13
2023-04-06T12:32:17.282Z,99468.44
2023-04-06T12:33:19.385Z,99474.53
2023-04-06T12:34:21.495Z,99462.81
2023-04-06T12:35:23.435Z,99472.84
2023-04-06T12:36:25.923Z,99468.22
2023-04-06T12:37:28.299Z,99472.56
2023-04-06T12:38:31.167Z,99471.75
2023-04-06T12:39:33.169Z,99465.72
2023-04-06T12:40:53.059Z,99466.91
2023-04-06T12:41:55.167Z,99463.78